sensor_id;sensor_type;location;lat;lon;timestamp;pressure;altitude;pressure_sealevel;temperature;humidity
21401;BME280;18038;50.166;18.908;2023-06-22T00:00:40;98179.84;;;17.45;82.19
21401;BME280;18038;50.166;18.908;2023-06-22T00:03:47;98177.38;;;17.32;82.73
21401;BME280;18038;50.166;18.908;2023-06-22T00:06:54;98172.09;;;17.25;82.99
21401;BME280;18038;50.166;18.908;2023-06-22T00:10:08;98176.19;;;17.28;83.44
21401;BME280;18038;50.166;18.908;2023-06-22T00:13:17;98180.19;;;17.14;84.45
21401;BME280;18038;50.166;18.908;2023-06-22T00:16:26;98178.66;;;17.18;84.35
21401;BME280;18038;50.166;18.908;2023-06-22T00:19:33;98184.19;;;17.35;83.22
21401;BME280;18038;50.166;18.908;2023-06-22T00:22:43;98182.28;;;17.47;82.45
21401;BME280;18038;50.166;18.908;2023-06-22T00:25:52;98184.28;;;17.51;81.24
21401;BME280;18038;50.166;18.908;2023-06-22T00:28:58;98185.34;;;17.39;82.20
21401;BME280;18038;50.166;18.908;2023-06-22T00:32:09;98184.31;;;17.40;81.56
21401;BME280;18038;50.166;18.908;2023-06-22T00:35:15;98191.19;;;17.47;81.09
21401;BME280;18038;50.166;18.908;2023-06-22T00:38:22;98130.19;;;17.23;80.29
21401;BME280;18038;50.166;18.908;2023-06-22T00:41:29;98184.63;;;17.55;80.71
21401;BME280;18038;50.166;18.908;2023-06-22T00:44:36;98182.53;;;17.57;80.70
21401;BME280;18038;50.166;18.908;2023-06-22T00:47:46;98176.88;;;17.47;80.91
21401;BME280;18038;50.166;18.908;2023-06-22T00:50:53;98168.31;;;17.50;80.61
21401;BME280;18038;50.166;18.908;2023-06-22T00:54:00;98176.91;;;17.59;80.35
21401;BME280;18038;50.166;18.908;2023-06-22T00:57:09;98174.09;;;17.65;80.05
21401;BME280;18038;50.166;18.908;2023-06-22T01:00:19;98178.91;;;17.75;79.36
21401;BME280;18038;50.166;18.908;2023-06-22T01:06:34;98175.59;;;17.85;78.76
21401;BME280;18038;50.166;18.908;2023-06-22T01:09:56;98171.13;;;17.90;78.36
21401;BME280;18038;50.166;18.908;2023-06-22T01:13:17;98160.41;;;17.95;78.22
21401;BME280;18038;50.166;18.908;2023-06-22T01:16:35;98168.16;;;17.92;77.97
21401;BME280;18038;50.166;18.908;2023-06-22T01:19:49;98172.25;;;17.94;77.52
21401;BME280;18038;50.166;18.908;2023-06-22T01:23:09;98157.41;;;17.80;77.65
21401;BME280;18038;50.166;18.908;2023-06-22T01:26:36;98170.38;;;17.95;77.17
21401;BME280;18038;50.166;18.908;2023-06-22T01:29:56;98133.34;;;17.67;77.59
21401;BME280;18038;50.166;18.908;2023-06-22T01:33:05;98164.53;;;17.86;77.28
21401;BME280;18038;50.166;18.908;2023-06-22T01:36:18;98159.72;;;17.77;77.43
21401;BME280;18038;50.166;18.908;2023-06-22T01:39:26;98169.22;;;17.91;77.54
21401;BME280;18038;50.166;18.908;2023-06-22T01:42:36;98190.94;;;17.96;77.10
21401;BME280;18038;50.166;18.908;2023-06-22T01:45:46;98186.69;;;18.00;76.98
21401;BME280;18038;50.166;18.908;2023-06-22T01:48:55;98190.69;;;17.98;76.85
21401;BME280;18038;50.166;18.908;2023-06-22T01:52:04;98177.81;;;17.88;76.57
21401;BME280;18038;50.166;18.908;2023-06-22T01:55:11;98188.84;;;17.98;76.74
21401;BME280;18038;50.166;18.908;2023-06-22T01:58:20;98195.75;;;18.06;76.66
21401;BME280;18038;50.166;18.908;2023-06-22T02:01:42;98184.59;;;18.02;76.59
21401;BME280;18038;50.166;18.908;2023-06-22T02:05:04;98184.00;;;18.00;76.60
21401;BME280;18038;50.166;18.908;2023-06-22T02:08:17;98190.03;;;17.79;77.59
21401;BME280;18038;50.166;18.908;2023-06-22T02:11:29;98199.31;;;17.71;78.35
21401;BME280;18038;50.166;18.908;2023-06-22T02:14:39;98203.69;;;17.72;78.37
21401;BME280;18038;50.166;18.908;2023-06-22T02:17:49;98209.19;;;17.77;78.10
21401;BME280;18038;50.166;18.908;2023-06-22T02:20:58;98208.13;;;17.78;78.16
21401;BME280;18038;50.166;18.908;2023-06-22T02:24:04;98202.94;;;17.77;78.03
21401;BME280;18038;50.166;18.908;2023-06-22T02:27:11;98203.31;;;17.80;77.84
21401;BME280;18038;50.166;18.908;2023-06-22T02:30:18;98180.63;;;17.58;78.07
21401;BME280;18038;50.166;18.908;2023-06-22T02:33:27;98209.69;;;17.74;78.58
21401;BME280;18038;50.166;18.908;2023-06-22T02:36:34;98213.78;;;17.65;78.60
21401;BME280;18038;50.166;18.908;2023-06-22T02:39:42;98222.56;;;17.48;79.18
21401;BME280;18038;50.166;18.908;2023-06-22T02:42:48;98228.56;;;17.50;79.69
21401;BME280;18038;50.166;18.908;2023-06-22T02:45:55;98230.66;;;17.48;79.94
21401;BME280;18038;50.166;18.908;2023-06-22T02:49:05;98231.94;;;17.58;79.05
21401;BME280;18038;50.166;18.908;2023-06-22T02:52:12;98219.03;;;17.60;79.28
21401;BME280;18038;50.166;18.908;2023-06-22T02:55:18;98241.84;;;17.64;79.48
21401;BME280;18038;50.166;18.908;2023-06-22T02:58:31;98254.13;;;17.60;79.40
21401;BME280;18038;50.166;18.908;2023-06-22T03:01:45;98259.00;;;17.69;79.45
21401;BME280;18038;50.166;18.908;2023-06-22T03:05:02;98251.72;;;17.70;79.44
21401;BME280;18038;50.166;18.908;2023-06-22T03:08:09;98250.75;;;17.76;79.05
21401;BME280;18038;50.166;18.908;2023-06-22T03:11:16;98249.25;;;17.80;79.06
21401;BME280;18038;50.166;18.908;2023-06-22T03:14:22;98254.75;;;17.85;78.97
21401;BME280;18038;50.166;18.908;2023-06-22T03:17:29;98255.69;;;17.91;79.04
21401;BME280;18038;50.166;18.908;2023-06-22T03:20:38;98264.94;;;17.95;78.65
21401;BME280;18038;50.166;18.908;2023-06-22T03:23:45;98256.50;;;18.03;78.64
21401;BME280;18038;50.166;18.908;2023-06-22T03:26:52;98262.00;;;18.08;78.12
21401;BME280;18038;50.166;18.908;2023-06-22T03:29:59;98256.56;;;18.20;78.02
21401;BME280;18038;50.166;18.908;2023-06-22T03:33:06;98253.59;;;18.33;77.87
21401;BME280;18038;50.166;18.908;2023-06-22T03:36:16;98239.47;;;18.43;77.16
21401;BME280;18038;50.166;18.908;2023-06-22T03:39:25;98238.97;;;18.58;76.53
21401;BME280;18038;50.166;18.908;2023-06-22T03:42:34;98245.34;;;18.80;75.97
21401;BME280;18038;50.166;18.908;2023-06-22T03:45:40;98250.28;;;18.83;76.00
21401;BME280;18038;50.166;18.908;2023-06-22T03:48:49;98249.66;;;19.10;75.73
21401;BME280;18038;50.166;18.908;2023-06-22T03:51:59;98255.66;;;19.46;73.70
21401;BME280;18038;50.166;18.908;2023-06-22T03:55:07;98255.41;;;19.81;72.74
21401;BME280;18038;50.166;18.908;2023-06-22T03:58:14;98266.66;;;20.29;71.03
21401;BME280;18038;50.166;18.908;2023-06-22T04:01:22;98266.00;;;20.66;69.60
21401;BME280;18038;50.166;18.908;2023-06-22T04:04:28;98263.25;;;20.88;68.84
21401;BME280;18038;50.166;18.908;2023-06-22T04:07:40;98261.75;;;21.29;67.73
21401;BME280;18038;50.166;18.908;2023-06-22T04:10:46;98258.63;;;21.80;65.98
21401;BME280;18038;50.166;18.908;2023-06-22T04:13:53;98266.81;;;22.32;64.11
21401;BME280;18038;50.166;18.908;2023-06-22T04:17:01;98263.13;;;22.64;62.82
21401;BME280;18038;50.166;18.908;2023-06-22T04:20:09;98270.03;;;23.08;62.15
21401;BME280;18038;50.166;18.908;2023-06-22T04:23:18;98288.34;;;23.63;59.91
21401;BME280;18038;50.166;18.908;2023-06-22T04:26:25;98277.63;;;24.13;58.55
21401;BME280;18038;50.166;18.908;2023-06-22T04:29:31;98274.19;;;24.67;57.60
21401;BME280;18038;50.166;18.908;2023-06-22T04:32:38;98285.31;;;24.76;56.50
21401;BME280;18038;50.166;18.908;2023-06-22T04:35:45;98288.25;;;24.85;56.42
21401;BME280;18038;50.166;18.908;2023-06-22T04:38:55;98288.69;;;25.12;55.95
21401;BME280;18038;50.166;18.908;2023-06-22T04:42:01;98283.06;;;25.67;54.13
21401;BME280;18038;50.166;18.908;2023-06-22T04:45:09;98283.53;;;26.03;53.07
21401;BME280;18038;50.166;18.908;2023-06-22T04:48:16;98287.59;;;26.35;52.60
21401;BME280;18038;50.166;18.908;2023-06-22T04:51:23;98299.56;;;27.06;50.87
21401;BME280;18038;50.166;18.908;2023-06-22T04:54:38;98304.72;;;27.08;50.58
21401;BME280;18038;50.166;18.908;2023-06-22T04:57:51;98280.66;;;27.05;49.56
21401;BME280;18038;50.166;18.908;2023-06-22T05:00:58;98307.16;;;26.72;50.97
21401;BME280;18038;50.166;18.908;2023-06-22T05:04:07;98307.34;;;26.99;50.44
21401;BME280;18038;50.166;18.908;2023-06-22T05:07:13;98302.66;;;27.19;49.76
21401;BME280;18038;50.166;18.908;2023-06-22T05:10:23;98303.09;;;27.26;49.21
21401;BME280;18038;50.166;18.908;2023-06-22T05:13:30;98308.75;;;27.34;49.09
21401;BME280;18038;50.166;18.908;2023-06-22T05:16:38;98311.78;;;27.52;48.71
21401;BME280;18038;50.166;18.908;2023-06-22T05:19:45;98315.97;;;27.63;48.03
21401;BME280;18038;50.166;18.908;2023-06-22T05:22:53;98316.38;;;27.57;48.70
21401;BME280;18038;50.166;18.908;2023-06-22T05:26:03;98318.16;;;27.80;47.77
21401;BME280;18038;50.166;18.908;2023-06-22T05:29:13;98317.38;;;27.61;48.14
21401;BME280;18038;50.166;18.908;2023-06-22T05:32:19;98319.13;;;28.03;47.12
21401;BME280;18038;50.166;18.908;2023-06-22T05:35:26;98324.69;;;28.17;47.36
21401;BME280;18038;50.166;18.908;2023-06-22T05:38:32;98322.84;;;28.81;45.17
21401;BME280;18038;50.166;18.908;2023-06-22T05:41:42;98329.13;;;28.13;46.40
21401;BME280;18038;50.166;18.908;2023-06-22T05:44:50;98330.41;;;27.69;47.57
21401;BME280;18038;50.166;18.908;2023-06-22T05:47:57;98336.22;;;27.10;48.50
21401;BME280;18038;50.166;18.908;2023-06-22T05:51:04;98327.03;;;27.01;49.21
21401;BME280;18038;50.166;18.908;2023-06-22T05:54:11;98325.91;;;26.83;49.95
21401;BME280;18038;50.166;18.908;2023-06-22T05:57:23;98328.13;;;26.57;50.37
21401;BME280;18038;50.166;18.908;2023-06-22T06:00:30;98332.84;;;25.69;52.66
21401;BME280;18038;50.166;18.908;2023-06-22T06:03:37;98335.69;;;25.49;53.49
21401;BME280;18038;50.166;18.908;2023-06-22T06:06:45;98333.00;;;25.44;54.11
21401;BME280;18038;50.166;18.908;2023-06-22T06:09:52;98338.72;;;26.16;52.79
21401;BME280;18038;50.166;18.908;2023-06-22T06:13:02;98339.28;;;27.47;48.49
21401;BME280;18038;50.166;18.908;2023-06-22T06:16:08;98346.69;;;28.58;46.39
21401;BME280;18038;50.166;18.908;2023-06-22T06:19:15;98345.72;;;30.31;42.26
21401;BME280;18038;50.166;18.908;2023-06-22T06:22:22;98346.44;;;30.45;41.73
21401;BME280;18038;50.166;18.908;2023-06-22T06:25:29;98345.75;;;30.79;40.23
21401;BME280;18038;50.166;18.908;2023-06-22T06:28:37;98361.78;;;30.37;40.78
21401;BME280;18038;50.166;18.908;2023-06-22T06:31:45;98346.91;;;29.62;42.13
21401;BME280;18038;50.166;18.908;2023-06-22T06:34:52;98344.47;;;30.77;40.77
21401;BME280;18038;50.166;18.908;2023-06-22T06:37:59;98334.78;;;31.58;38.99
21401;BME280;18038;50.166;18.908;2023-06-22T06:41:06;98340.63;;;31.91;38.20
21401;BME280;18038;50.166;18.908;2023-06-22T06:44:15;98341.19;;;32.31;36.83
21401;BME280;18038;50.166;18.908;2023-06-22T06:47:22;98338.53;;;31.44;38.25
21401;BME280;18038;50.166;18.908;2023-06-22T06:50:29;98351.00;;;32.50;36.41
21401;BME280;18038;50.166;18.908;2023-06-22T06:53:36;98348.41;;;31.89;36.72
21401;BME280;18038;50.166;18.908;2023-06-22T06:56:44;98350.34;;;32.53;36.85
21401;BME280;18038;50.166;18.908;2023-06-22T06:59:53;98352.44;;;32.56;35.59
21401;BME280;18038;50.166;18.908;2023-06-22T07:03:01;98338.34;;;30.57;39.61
21401;BME280;18038;50.166;18.908;2023-06-22T07:06:08;98339.19;;;31.59;38.14
21401;BME280;18038;50.166;18.908;2023-06-22T07:09:16;98340.16;;;31.28;38.28
21401;BME280;18038;50.166;18.908;2023-06-22T07:12:22;98349.88;;;32.04;36.54
21401;BME280;18038;50.166;18.908;2023-06-22T07:15:32;98352.81;;;32.84;34.98
21401;BME280;18038;50.166;18.908;2023-06-22T07:18:41;98359.09;;;32.25;35.74
21401;BME280;18038;50.166;18.908;2023-06-22T07:21:48;98326.94;;;33.10;34.93
21401;BME280;18038;50.166;18.908;2023-06-22T07:24:54;98358.69;;;32.83;34.54
21401;BME280;18038;50.166;18.908;2023-06-22T07:28:07;98359.41;;;32.32;35.10
21401;BME280;18038;50.166;18.908;2023-06-22T07:31:17;98350.53;;;31.31;36.64
21401;BME280;18038;50.166;18.908;2023-06-22T07:34:25;98347.56;;;31.01;36.91
21401;BME280;18038;50.166;18.908;2023-06-22T07:37:31;98353.22;;;30.88;37.55
21401;BME280;18038;50.166;18.908;2023-06-22T07:40:38;98364.19;;;31.36;37.02
21401;BME280;18038;50.166;18.908;2023-06-22T07:43:45;98329.91;;;31.11;36.06
21401;BME280;18038;50.166;18.908;2023-06-22T07:46:54;98362.03;;;32.03;35.60
21401;BME280;18038;50.166;18.908;2023-06-22T07:50:02;98365.31;;;32.52;33.82
21401;BME280;18038;50.166;18.908;2023-06-22T07:53:10;98344.97;;;32.18;34.94
21401;BME280;18038;50.166;18.908;2023-06-22T07:56:16;98360.38;;;32.28;34.86
21401;BME280;18038;50.166;18.908;2023-06-22T07:59:24;98371.91;;;32.21;34.77
21401;BME280;18038;50.166;18.908;2023-06-22T08:02:33;98377.19;;;32.52;34.77
21401;BME280;18038;50.166;18.908;2023-06-22T08:05:42;98370.41;;;32.80;34.06
21401;BME280;18038;50.166;18.908;2023-06-22T08:08:48;98360.75;;;31.65;35.51
21401;BME280;18038;50.166;18.908;2023-06-22T08:11:58;98367.19;;;30.91;35.67
21401;BME280;18038;50.166;18.908;2023-06-22T08:15:06;98375.53;;;31.26;35.80
21401;BME280;18038;50.166;18.908;2023-06-22T08:18:17;98381.38;;;31.16;34.63
21401;BME280;18038;50.166;18.908;2023-06-22T08:21:23;98378.97;;;31.75;34.52
21401;BME280;18038;50.166;18.908;2023-06-22T08:24:30;98380.78;;;31.80;34.90
21401;BME280;18038;50.166;18.908;2023-06-22T08:27:36;98393.06;;;32.00;33.99
21401;BME280;18038;50.166;18.908;2023-06-22T08:30:44;98386.50;;;32.86;32.08
21401;BME280;18038;50.166;18.908;2023-06-22T08:33:53;98400.47;;;32.43;33.17
21401;BME280;18038;50.166;18.908;2023-06-22T08:37:00;98396.66;;;32.18;33.77
21401;BME280;18038;50.166;18.908;2023-06-22T08:40:21;98404.00;;;31.87;33.77
21401;BME280;18038;50.166;18.908;2023-06-22T08:43:34;98404.91;;;31.39;34.47
21401;BME280;18038;50.166;18.908;2023-06-22T08:46:40;98397.94;;;32.03;34.21
21401;BME280;18038;50.166;18.908;2023-06-22T08:49:50;98392.34;;;31.07;34.08
21401;BME280;18038;50.166;18.908;2023-06-22T08:52:56;98392.75;;;30.66;34.80
21401;BME280;18038;50.166;18.908;2023-06-22T08:56:04;98398.78;;;30.45;35.32
21401;BME280;18038;50.166;18.908;2023-06-22T08:59:10;98396.72;;;30.28;36.74
21401;BME280;18038;50.166;18.908;2023-06-22T09:02:23;98396.50;;;30.78;35.80
21401;BME280;18038;50.166;18.908;2023-06-22T09:05:39;98396.19;;;30.80;35.59
21401;BME280;18038;50.166;18.908;2023-06-22T09:08:46;98401.03;;;31.49;33.71
21401;BME280;18038;50.166;18.908;2023-06-22T09:11:53;98397.44;;;31.22;34.21
21401;BME280;18038;50.166;18.908;2023-06-22T09:15:00;98398.44;;;31.35;33.78
21401;BME280;18038;50.166;18.908;2023-06-22T09:18:10;98397.75;;;32.25;33.87
21401;BME280;18038;50.166;18.908;2023-06-22T09:21:20;98388.25;;;32.91;32.44
21401;BME280;18038;50.166;18.908;2023-06-22T09:24:26;98381.75;;;32.87;31.76
21401;BME280;18038;50.166;18.908;2023-06-22T09:27:34;98369.16;;;33.28;29.99
21401;BME280;18038;50.166;18.908;2023-06-22T09:30:40;98369.31;;;33.73;31.08
21401;BME280;18038;50.166;18.908;2023-06-22T09:33:49;98354.22;;;34.16;29.53
21401;BME280;18038;50.166;18.908;2023-06-22T09:36:58;98352.41;;;34.45;28.74
21401;BME280;18038;50.166;18.908;2023-06-22T09:40:07;98352.06;;;34.96;29.13
21401;BME280;18038;50.166;18.908;2023-06-22T09:43:16;98357.16;;;34.44;28.80
21401;BME280;18038;50.166;18.908;2023-06-22T09:46:23;98360.00;;;34.23;29.26
21401;BME280;18038;50.166;18.908;2023-06-22T09:49:30;98357.81;;;33.96;29.10
21401;BME280;18038;50.166;18.908;2023-06-22T09:52:53;98358.03;;;34.24;28.00
21401;BME280;18038;50.166;18.908;2023-06-22T09:56:00;98349.63;;;32.73;29.13
21401;BME280;18038;50.166;18.908;2023-06-22T09:59:07;98336.78;;;32.77;31.02
21401;BME280;18038;50.166;18.908;2023-06-22T10:02:20;98351.22;;;33.34;29.49
21401;BME280;18038;50.166;18.908;2023-06-22T10:05:27;98350.94;;;33.27;28.68
21401;BME280;18038;50.166;18.908;2023-06-22T10:08:37;98346.75;;;32.05;30.23
21401;BME280;18038;50.166;18.908;2023-06-22T10:11:45;98342.63;;;31.56;32.85
21401;BME280;18038;50.166;18.908;2023-06-22T10:14:52;98338.72;;;31.22;31.35
21401;BME280;18038;50.166;18.908;2023-06-22T10:18:00;98336.03;;;30.82;32.25
21401;BME280;18038;50.166;18.908;2023-06-22T10:21:10;98339.34;;;30.53;33.38
21401;BME280;18038;50.166;18.908;2023-06-22T10:24:19;98343.16;;;30.83;32.80
21401;BME280;18038;50.166;18.908;2023-06-22T10:27:25;98342.41;;;31.09;33.35
21401;BME280;18038;50.166;18.908;2023-06-22T10:30:33;98336.13;;;31.69;32.52
21401;BME280;18038;50.166;18.908;2023-06-22T10:33:39;98337.03;;;31.99;31.96
21401;BME280;18038;50.166;18.908;2023-06-22T10:36:47;98340.00;;;31.85;32.36
21401;BME280;18038;50.166;18.908;2023-06-22T10:39:56;98336.59;;;31.54;31.84
21401;BME280;18038;50.166;18.908;2023-06-22T10:43:04;98334.81;;;31.23;33.53
21401;BME280;18038;50.166;18.908;2023-06-22T10:46:10;98333.16;;;31.13;32.60
21401;BME280;18038;50.166;18.908;2023-06-22T10:49:17;98327.56;;;30.70;33.46
21401;BME280;18038;50.166;18.908;2023-06-22T10:52:23;98330.47;;;30.65;33.68
21401;BME280;18038;50.166;18.908;2023-06-22T10:55:33;98328.31;;;30.53;32.03
21401;BME280;18038;50.166;18.908;2023-06-22T10:58:58;98324.66;;;30.04;32.76
21401;BME280;18038;50.166;18.908;2023-06-22T11:02:05;98323.09;;;30.11;33.51
21401;BME280;18038;50.166;18.908;2023-06-22T11:05:12;98325.22;;;30.14;34.15
21401;BME280;18038;50.166;18.908;2023-06-22T11:08:19;98311.53;;;29.78;35.09
21401;BME280;18038;50.166;18.908;2023-06-22T11:11:28;98315.00;;;29.84;34.88
21401;BME280;18038;50.166;18.908;2023-06-22T11:14:35;98312.47;;;30.27;34.84
21401;BME280;18038;50.166;18.908;2023-06-22T11:17:41;98309.50;;;30.15;34.28
21401;BME280;18038;50.166;18.908;2023-06-22T11:20:48;98309.88;;;29.68;34.54
21401;BME280;18038;50.166;18.908;2023-06-22T11:23:56;98303.84;;;29.21;34.61
21401;BME280;18038;50.166;18.908;2023-06-22T11:27:06;98303.44;;;29.28;35.38
21401;BME280;18038;50.166;18.908;2023-06-22T11:30:13;98296.63;;;29.70;34.83
21401;BME280;18038;50.166;18.908;2023-06-22T11:33:20;98298.13;;;29.77;34.20
21401;BME280;18038;50.166;18.908;2023-06-22T11:36:27;98304.44;;;29.55;34.19
21401;BME280;18038;50.166;18.908;2023-06-22T11:39:36;98300.66;;;29.50;34.18
21401;BME280;18038;50.166;18.908;2023-06-22T11:42:57;98302.56;;;29.86;35.35
21401;BME280;18038;50.166;18.908;2023-06-22T11:46:04;98299.91;;;30.44;35.10
21401;BME280;18038;50.166;18.908;2023-06-22T11:49:11;98293.88;;;30.33;33.02
21401;BME280;18038;50.166;18.908;2023-06-22T11:52:18;98291.31;;;29.74;34.02
21401;BME280;18038;50.166;18.908;2023-06-22T11:55:25;98295.56;;;29.58;34.31
21401;BME280;18038;50.166;18.908;2023-06-22T11:58:34;98282.63;;;29.58;34.76
21401;BME280;18038;50.166;18.908;2023-06-22T12:01:40;98268.13;;;29.98;36.01
21401;BME280;18038;50.166;18.908;2023-06-22T12:04:48;98270.25;;;30.41;35.17
21401;BME280;18038;50.166;18.908;2023-06-22T12:07:55;98273.44;;;30.91;34.42
21401;BME280;18038;50.166;18.908;2023-06-22T12:11:03;98264.94;;;30.53;32.53
21401;BME280;18038;50.166;18.908;2023-06-22T12:14:11;98262.75;;;30.24;32.61
21401;BME280;18038;50.166;18.908;2023-06-22T12:17:18;98255.81;;;30.04;33.04
21401;BME280;18038;50.166;18.908;2023-06-22T12:20:25;98254.13;;;30.16;34.16
21401;BME280;18038;50.166;18.908;2023-06-22T12:23:32;98254.13;;;30.82;33.51
21401;BME280;18038;50.166;18.908;2023-06-22T12:26:38;98250.66;;;30.59;33.30
21401;BME280;18038;50.166;18.908;2023-06-22T12:29:48;98247.16;;;30.94;33.19
21401;BME280;18038;50.166;18.908;2023-06-22T12:32:55;98250.44;;;31.31;31.73
21401;BME280;18038;50.166;18.908;2023-06-22T12:36:02;98251.06;;;30.84;32.30
21401;BME280;18038;50.166;18.908;2023-06-22T12:39:09;98237.44;;;31.05;31.47
21401;BME280;18038;50.166;18.908;2023-06-22T12:42:16;98235.16;;;31.07;32.04
21401;BME280;18038;50.166;18.908;2023-06-22T12:45:26;98231.44;;;30.20;33.25
21401;BME280;18038;50.166;18.908;2023-06-22T12:48:37;98232.97;;;30.43;33.33
21401;BME280;18038;50.166;18.908;2023-06-22T12:51:45;98230.91;;;30.09;32.93
21401;BME280;18038;50.166;18.908;2023-06-22T12:54:52;98220.94;;;30.22;33.78
21401;BME280;18038;50.166;18.908;2023-06-22T12:57:59;98221.31;;;30.46;34.77
21401;BME280;18038;50.166;18.908;2023-06-22T13:01:09;98216.13;;;30.62;33.61
21401;BME280;18038;50.166;18.908;2023-06-22T13:04:15;98214.72;;;30.73;33.28
21401;BME280;18038;50.166;18.908;2023-06-22T13:07:22;98213.03;;;30.46;32.71
21401;BME280;18038;50.166;18.908;2023-06-22T13:10:28;98213.69;;;30.34;32.04
21401;BME280;18038;50.166;18.908;2023-06-22T13:13:36;98208.97;;;30.35;32.30
21401;BME280;18038;50.166;18.908;2023-06-22T13:16:45;98206.88;;;30.49;33.01
21401;BME280;18038;50.166;18.908;2023-06-22T13:19:52;98195.50;;;30.16;33.11
21401;BME280;18038;50.166;18.908;2023-06-22T13:22:58;98209.16;;;29.99;33.22
21401;BME280;18038;50.166;18.908;2023-06-22T13:26:05;98198.34;;;30.02;34.11
21401;BME280;18038;50.166;18.908;2023-06-22T13:29:13;98193.69;;;30.11;33.54
21401;BME280;18038;50.166;18.908;2023-06-22T13:32:22;98194.03;;;30.19;33.46
21401;BME280;18038;50.166;18.908;2023-06-22T13:35:29;98188.44;;;30.01;33.53
21401;BME280;18038;50.166;18.908;2023-06-22T13:38:36;98189.38;;;29.97;34.24
21401;BME280;18038;50.166;18.908;2023-06-22T13:41:43;98193.41;;;29.82;33.57
21401;BME280;18038;50.166;18.908;2023-06-22T13:44:50;98194.38;;;29.86;33.49
21401;BME280;18038;50.166;18.908;2023-06-22T13:47:59;98201.19;;;29.88;34.00
21401;BME280;18038;50.166;18.908;2023-06-22T13:51:07;98191.94;;;29.84;33.73
21401;BME280;18038;50.166;18.908;2023-06-22T13:54:13;98187.75;;;29.87;33.88
21401;BME280;18038;50.166;18.908;2023-06-22T13:57:31;98173.53;;;29.62;32.57
21401;BME280;18038;50.166;18.908;2023-06-22T14:00:38;98177.13;;;29.63;33.24
21401;BME280;18038;50.166;18.908;2023-06-22T14:03:48;98183.81;;;29.48;33.56
21401;BME280;18038;50.166;18.908;2023-06-22T14:06:54;98178.63;;;29.46;34.06
21401;BME280;18038;50.166;18.908;2023-06-22T14:10:02;98181.97;;;29.57;34.94
21401;BME280;18038;50.166;18.908;2023-06-22T14:13:09;98173.31;;;29.50;34.53
21401;BME280;18038;50.166;18.908;2023-06-22T14:16:16;98177.53;;;29.56;34.14
21401;BME280;18038;50.166;18.908;2023-06-22T14:19:25;98177.13;;;29.63;34.34
21401;BME280;18038;50.166;18.908;2023-06-22T14:22:32;98173.06;;;29.60;34.02
21401;BME280;18038;50.166;18.908;2023-06-22T14:25:39;98172.78;;;29.39;34.21
21401;BME280;18038;50.166;18.908;2023-06-22T14:28:47;98166.22;;;29.26;34.36
21401;BME280;18038;50.166;18.908;2023-06-22T14:31:54;98160.72;;;29.26;34.47
21401;BME280;18038;50.166;18.908;2023-06-22T14:35:04;98168.94;;;29.18;33.22
21401;BME280;18038;50.166;18.908;2023-06-22T14:38:11;98160.31;;;29.11;33.73
21401;BME280;18038;50.166;18.908;2023-06-22T14:41:18;98157.34;;;29.29;35.10
21401;BME280;18038;50.166;18.908;2023-06-22T14:44:24;98155.22;;;29.26;34.70
21401;BME280;18038;50.166;18.908;2023-06-22T14:47:32;98160.63;;;29.40;34.36
21401;BME280;18038;50.166;18.908;2023-06-22T14:50:41;98157.22;;;29.35;35.15
21401;BME280;18038;50.166;18.908;2023-06-22T14:53:48;98141.72;;;29.16;34.56
21401;BME280;18038;50.166;18.908;2023-06-22T14:56:55;98145.28;;;29.17;34.68
21401;BME280;18038;50.166;18.908;2023-06-22T15:00:02;98154.09;;;29.27;34.13
21401;BME280;18038;50.166;18.908;2023-06-22T15:03:10;98149.22;;;29.24;33.66
21401;BME280;18038;50.166;18.908;2023-06-22T15:06:24;98146.72;;;29.37;34.52
21401;BME280;18038;50.166;18.908;2023-06-22T15:09:30;98148.91;;;29.26;33.76
21401;BME280;18038;50.166;18.908;2023-06-22T15:12:37;98149.69;;;29.18;33.29
21401;BME280;18038;50.166;18.908;2023-06-22T15:15:43;98147.22;;;29.16;34.15
21401;BME280;18038;50.166;18.908;2023-06-22T15:18:50;98146.47;;;29.24;35.57
21401;BME280;18038;50.166;18.908;2023-06-22T15:21:59;98138.75;;;29.35;34.19
21401;BME280;18038;50.166;18.908;2023-06-22T15:25:07;98140.53;;;29.31;34.63
21401;BME280;18038;50.166;18.908;2023-06-22T15:28:14;98132.03;;;29.19;34.21
21401;BME280;18038;50.166;18.908;2023-06-22T15:31:21;98137.41;;;29.24;34.01
21401;BME280;18038;50.166;18.908;2023-06-22T15:34:28;98128.66;;;29.22;33.64
21401;BME280;18038;50.166;18.908;2023-06-22T15:37:37;98125.50;;;28.83;34.22
21401;BME280;18038;50.166;18.908;2023-06-22T15:40:44;98130.22;;;28.92;35.35
21401;BME280;18038;50.166;18.908;2023-06-22T15:43:51;98092.63;;;28.56;34.87
21401;BME280;18038;50.166;18.908;2023-06-22T15:46:58;98127.06;;;28.76;34.07
21401;BME280;18038;50.166;18.908;2023-06-22T15:50:09;98132.50;;;28.67;34.08
21401;BME280;18038;50.166;18.908;2023-06-22T15:53:21;98130.41;;;28.50;34.49
21401;BME280;18038;50.166;18.908;2023-06-22T15:56:30;98129.97;;;28.57;34.72
21401;BME280;18038;50.166;18.908;2023-06-22T15:59:37;98121.50;;;28.67;35.89
21401;BME280;18038;50.166;18.908;2023-06-22T16:02:45;98118.81;;;28.76;35.60
21401;BME280;18038;50.166;18.908;2023-06-22T16:05:53;98122.53;;;28.80;35.80
21401;BME280;18038;50.166;18.908;2023-06-22T16:09:03;98103.00;;;28.81;35.06
21401;BME280;18038;50.166;18.908;2023-06-22T16:12:10;98122.75;;;28.83;34.81
21401;BME280;18038;50.166;18.908;2023-06-22T16:15:17;98113.50;;;28.79;34.92
21401;BME280;18038;50.166;18.908;2023-06-22T16:18:26;98104.88;;;28.72;34.98
21401;BME280;18038;50.166;18.908;2023-06-22T16:21:33;98105.81;;;28.31;34.53
21401;BME280;18038;50.166;18.908;2023-06-22T16:24:42;98085.56;;;27.91;34.84
21401;BME280;18038;50.166;18.908;2023-06-22T16:27:53;98088.59;;;27.89;36.27